This is the latest recevied weather packets stored in our database for station/object AI5BL. If no packets are shown the sender has not sent any weather packets the latest 10 day(s).
| Time | Temp. | Humidity | Pressure | Rain* | Wind** | Luminosity | Snow |
|---|---|---|---|---|---|---|---|
| 1777586757 | 19.44° C | 92% | 1014 hPa | 1.27 mm | - | 35 W/m² | - |
| 1777586453 | 19.44° C | 89% | 1014 hPa | 0 mm | - | 41 W/m² | - |
| 1777585546 | 20° C | 90% | 1014 hPa | 0 mm | - | 47 W/m² | - |
| 1777583722 | 20.56° C | 88% | 1013.8 hPa | 0 mm | - | 132 W/m² | - |
| 1777583121 | 20.56° C | 87% | 1013.8 hPa | 0 mm | - | 101 W/m² | - |
| 1777582209 | 20.56° C | 86% | 1014 hPa | 0 mm | - | 91 W/m² | - |
| 1777581907 | 21.11° C | 85% | 1014 hPa | 0 mm | - | 188 W/m² | - |
| 1777581296 | 20.56° C | 86% | 1014.3 hPa | 0 mm | - | 267 W/m² | - |
| 1777580691 | 20.56° C | 87% | 1014.6 hPa | 0 mm | - | 59 W/m² | - |
| 1777580387 | 20.56° C | 87% | 1014.7 hPa | 0 mm | - | 51 W/m² | - |
| 1777579780 | 21.11° C | 83% | 1014.7 hPa | 0 mm | - | 150 W/m² | - |
| 1777579477 | 21.11° C | 85% | 1014.7 hPa | 0 mm | - | 306 W/m² | - |
| 1777579173 | 21.11° C | 84% | 1014.6 hPa | 0 mm | - | 205 W/m² | - |
| 1777578868 | 20.56° C | 86% | 1014.6 hPa | 0 mm | - | 247 W/m² | - |
| 1777578565 | 20° C | 86% | 1014.9 hPa | 0 mm | - | 188 W/m² | - |
| 1777577349 | 20.56° C | 86% | 1015.1 hPa | 0 mm | - | 333 W/m² | - |
| 1777577043 | 20° C | 89% | 1015.1 hPa | 0 mm | - | 231 W/m² | - |
| 1777576741 | 20° C | 89% | 1015.1 hPa | 0 mm | - | 119 W/m² | - |
| 1777576137 | 20° C | 88% | 1015.3 hPa | 0 mm | - | 173 W/m² | - |
| 1777575832 | 20° C | 87% | 1015.1 hPa | 0 mm | - | 150 W/m² | - |
| 1777574921 | 20.56° C | 87% | 1014.7 hPa | 0 mm | - | 275 W/m² | - |
| 1777574314 | 20° C | 88% | 1015.1 hPa | 0 mm | - | 426 W/m² | - |
| 1777571581 | 18.89° C | 91% | 1015.6 hPa | 0 mm | - | 156 W/m² | - |
| 1777567939 | 18.89° C | 91% | 1016.5 hPa | 0 mm | - | 153 W/m² | - |
| 1777567635 | 18.89° C | 91% | 1016.4 hPa | 0 mm | - | 180 W/m² | - |
* Rain latest hour (hover to see other rain measurements)
** Current wind speed in m/s (hover to see current wind gust speed)